| time (UTC) | temp F | wind direction | speed MPH | gust MPH | rain 1hr in | rain 24hr in | rain mn in | humidity % | barometer mb |
| 20260507120005 | 49 | 320 | 0.0 | 0.0 | 0.00 | 0.41 | 0.17 | 86 | 1013.2 |
| 20260507114524 | 49 | 320 | 0.0 | 0.0 | 0.00 | 0.41 | 0.17 | 84 | 1013.1 |
| 20260507113023 | 49 | 320 | 0.0 | 0.0 | 0.00 | 0.41 | 0.17 | 82 | 1013.2 |
| 20260507111518 | 49 | 320 | 0.0 | 0.0 | 0.00 | 0.41 | 0.17 | 79 | 1013.1 |
| 20260507110018 | 49 | 320 | 0.0 | 0.0 | 0.00 | 0.41 | 0.17 | 83 | 1012.9 |
| 20260507104511 | 50 | 320 | 0.0 | 0.0 | 0.00 | 0.41 | 0.17 | 90 | 1012.8 |
| 20260507103008 | 50 | 320 | 0.0 | 0.0 | 0.00 | 0.41 | 0.17 | 90 | 1012.6 |
| 20260507101533 | 50 | 320 | 0.0 | 0.0 | 0.00 | 0.41 | 0.17 | 90 | 1012.5 |
| 20260507100023 | 50 | 320 | 0.0 | 0.0 | 0.00 | 0.41 | 0.17 | 89 | 1012.2 |
| 20260507094521 | 50 | 320 | 0.0 | 0.0 | 0.00 | 0.41 | 0.17 | 90 | 1012.2 |
| 20260507093016 | 50 | 320 | 0.0 | 0.0 | 0.00 | 0.41 | 0.17 | 91 | 1012.2 |
| 20260507091518 | 51 | 320 | 0.0 | 0.0 | 0.00 | 0.41 | 0.17 | 91 | 1012.3 |
| 20260507090026 | 50 | 320 | 0.0 | 0.0 | 0.00 | 0.41 | 0.17 | 90 | 1012.2 |
| 20260507084527 | 51 | 320 | 0.0 | 0.0 | 0.00 | 0.41 | 0.17 | 91 | 1012.0 |
| 20260507083022 | 51 | 320 | 0.0 | 0.0 | 0.00 | 0.41 | 0.17 | 90 | 1011.8 |
| 20260507081523 | 51 | 320 | 0.0 | 0.0 | 0.01 | 0.41 | 0.17 | 90 | 1011.4 |
| 20260507080018 | 51 | 320 | 0.0 | 0.0 | 0.01 | 0.41 | 0.17 | 91 | 1011.4 |
| 20260507074515 | 51 | 313 | 0.0 | 0.0 | 0.01 | 0.41 | 0.17 | 91 | 1011.3 |
| 20260507073028 | 51 | 313 | 0.0 | 0.0 | 0.03 | 0.41 | 0.17 | 91 | 1011.2 |
| 20260507071526 | 51 | 313 | 0.0 | 0.0 | 0.05 | 0.40 | 0.16 | 91 | 1011.2 |
| 20260507070039 | 52 | 311 | 0.0 | 0.0 | 0.05 | 0.40 | 0.16 | 91 | 1011.4 |
| 20260507064505 | 52 | 311 | 0.0 | 0.0 | 0.05 | 0.40 | 0.16 | 90 | 1011.7 |
| 20260507063004 | 52 | 311 | 0.0 | 0.0 | 0.03 | 0.38 | 0.14 | 90 | 1011.4 |
| 20260507061509 | 53 | 311 | 0.0 | 0.0 | 0.00 | 0.35 | 0.11 | 90 | 1011.6 |
| 20260507060013 | 53 | 311 | 0.0 | 0.0 | 0.00 | 0.35 | 0.11 | 91 | 1011.8 |
| 20260507054510 | 53 | 311 | 0.0 | 0.0 | 0.00 | 0.35 | 0.11 | 90 | 1011.5 |
| 20260507053009 | 54 | 311 | 0.0 | 0.0 | 0.07 | 0.35 | 0.11 | 91 | 1011.5 |
| 20260507051503 | 54 | 311 | 0.0 | 0.0 | 0.09 | 0.35 | 0.11 | 91 | 1011.5 |
| 20260507050020 | 54 | 311 | 0.0 | 0.0 | 0.11 | 0.35 | 0.11 | 91 | 1011.4 |
| 20260507044511 | 54 | 311 | 0.0 | 0.0 | 0.12 | 0.35 | 0.11 | 91 | 1011.7 |
| 20260507043012 | 55 | 311 | 0.0 | 0.0 | 0.07 | 0.28 | 0.04 | 91 | 1011.9 |
| 20260507041512 | 55 | 314 | 0.0 | 0.0 | 0.05 | 0.26 | 0.02 | 89 | 1011.2 |
| 20260507040011 | 56 | 315 | 0.0 | 2.0 | 0.03 | 0.24 | 0.00 | 88 | 1011.5 |
| 20260507034507 | 57 | 316 | 0.0 | 1.0 | 0.02 | 0.23 | 0.23 | 86 | 1011.1 |
| 20260507033013 | 58 | 307 | 0.0 | 0.0 | 0.00 | 0.21 | 0.21 | 81 | 1011.3 |
| 20260507031516 | 58 | 314 | 0.0 | 1.0 | 0.00 | 0.21 | 0.21 | 80 | 1010.9 |
| 20260507030015 | 59 | 313 | 1.0 | 2.0 | 0.00 | 0.21 | 0.21 | 80 | 1010.8 |
| 20260507024521 | 59 | 315 | 1.0 | 4.0 | 0.00 | 0.21 | 0.21 | 79 | 1010.7 |
| 20260507023010 | 60 | 319 | 1.0 | 2.0 | 0.00 | 0.21 | 0.21 | 82 | 1010.7 |
| 20260507021518 | 60 | 309 | 2.0 | 3.0 | 0.00 | 0.21 | 0.21 | 83 | 1010.7 |
| 20260507020023 | 61 | 316 | 0.0 | 2.0 | 0.00 | 0.21 | 0.21 | 83 | 1010.6 |
| 20260507014521 | 61 | 318 | 2.0 | 4.0 | 0.00 | 0.21 | 0.21 | 83 | 1010.5 |
| 20260507013025 | 62 | 308 | 0.0 | 1.0 | 0.00 | 0.21 | 0.21 | 88 | 1010.3 |
| 20260507011529 | 62 | 307 | 2.0 | 3.0 | 0.00 | 0.21 | 0.21 | 87 | 1010.7 |
| 20260507010019 | 63 | 308 | 1.0 | 2.0 | 0.00 | 0.21 | 0.21 | 87 | 1010.6 |
| 20260507004523 | 63 | 326 | 1.0 | 3.0 | 0.00 | 0.21 | 0.21 | 87 | 1010.1 |
| 20260507003022 | 63 | 313 | 1.0 | 2.0 | 0.00 | 0.21 | 0.21 | 86 | 1010.3 |
| 20260507001506 | 64 | 326 | 3.0 | 4.0 | 0.00 | 0.21 | 0.21 | 86 | 1010.1 |
| 20260507000004 | 65 | 276 | 1.0 | 2.0 | 0.00 | 0.21 | 0.21 | 87 | 1009.8 |
| 20260506234520 | 65 | 257 | 0.0 | 0.0 | 0.00 | 0.21 | 0.21 | 85 | 1009.3 |
| 20260506233015 | 66 | 257 | 0.0 | 0.0 | 0.00 | 0.21 | 0.21 | 84 | 1009.0 |
| 20260506231511 | 66 | 257 | 0.0 | 0.0 | 0.00 | 0.21 | 0.21 | 83 | 1009.0 |
| 20260506230008 | 66 | 257 | 0.0 | 0.0 | 0.00 | 0.21 | 0.21 | 84 | 1008.9 |
| 20260506224505 | 66 | 257 | 0.0 | 0.0 | 0.00 | 0.21 | 0.21 | 83 | 1009.0 |
| 20260506223004 | 66 | 257 | 0.0 | 0.0 | 0.00 | 0.21 | 0.21 | 84 | 1008.8 |
| 20260506221522 | 66 | 257 | 0.0 | 0.0 | 0.00 | 0.21 | 0.21 | 84 | 1008.9 |
| 20260506220018 | 66 | 257 | 0.0 | 0.0 | 0.00 | 0.21 | 0.21 | 83 | 1009.1 |
| 20260506214516 | 66 | 257 | 0.0 | 0.0 | 0.00 | 0.21 | 0.21 | 82 | 1008.9 |
| 20260506213014 | 67 | 257 | 0.0 | 2.0 | 0.00 | 0.21 | 0.21 | 80 | 1008.7 |
| 20260506211512 | 66 | 233 | 0.0 | 1.0 | 0.00 | 0.21 | 0.21 | 80 | 1008.5 |
| 20260506210009 | 67 | 217 | 0.0 | 1.0 | 0.00 | 0.21 | 0.21 | 79 | 1008.5 |
| 20260506204522 | 67 | 210 | 1.0 | 1.0 | 0.00 | 0.21 | 0.21 | 79 | 1008.2 |
| 20260506203023 | 67 | 200 | 0.0 | 2.0 | 0.00 | 0.21 | 0.21 | 79 | 1008.2 |
| 20260506201519 | 67 | 288 | 0.0 | 0.0 | 0.00 | 0.21 | 0.21 | 80 | 1008.5 |
| 20260506200014 | 67 | 228 | 0.0 | 2.0 | 0.00 | 0.21 | 0.21 | 80 | 1008.4 |
| 20260506194509 | 67 | 269 | 0.0 | 3.0 | 0.00 | 0.21 | 0.21 | 80 | 1008.3 |
| 20260506193026 | 66 | 217 | 1.0 | 3.0 | 0.00 | 0.21 | 0.21 | 80 | 1008.5 |
| 20260506191527 | 66 | 243 | 0.0 | 2.0 | 0.00 | 0.21 | 0.21 | 82 | 1008.4 |
| 20260506190023 | 65 | 176 | 1.0 | 4.0 | 0.00 | 0.21 | 0.21 | 82 | 1008.6 |
| 20260506184521 | 64 | 206 | 0.0 | 2.0 | 0.00 | 0.21 | 0.21 | 84 | 1008.7 |
| 20260506183018 | 64 | 257 | 0.0 | 3.0 | 0.00 | 0.21 | 0.21 | 84 | 1008.8 |
| 20260506181510 | 63 | 205 | 1.0 | 3.0 | 0.00 | 0.21 | 0.21 | 84 | 1008.8 |
| 20260506180013 | 63 | 239 | 0.0 | 3.0 | 0.00 | 0.21 | 0.21 | 85 | 1009.0 |
| 20260506174508 | 62 | 229 | 1.0 | 3.0 | 0.00 | 0.21 | 0.21 | 86 | 1009.2 |
| 20260506173013 | 62 | 208 | 1.0 | 3.0 | 0.00 | 0.21 | 0.21 | 87 | 1009.1 |
| 20260506171503 | 61 | 139 | 1.0 | 4.0 | 0.00 | 0.21 | 0.21 | 88 | 1009.0 |
| 20260506170019 | 61 | 273 | 1.0 | 4.0 | 0.00 | 0.21 | 0.21 | 89 | 1009.2 |
| 20260506164516 | 60 | 239 | 0.0 | 4.0 | 0.00 | 0.21 | 0.21 | 90 | 1009.1 |
| 20260506163016 | 60 | 207 | 1.0 | 3.0 | 0.01 | 0.21 | 0.21 | 91 | 1009.3 |
| 20260506161508 | 60 | 212 | 0.0 | 3.0 | 0.01 | 0.21 | 0.21 | 91 | 1009.1 |
| 20260506160008 | 59 | 143 | 0.0 | 3.0 | 0.01 | 0.21 | 0.21 | 91 | 1009.3 |
| 20260506154503 | 59 | 188 | 1.0 | 3.0 | 0.03 | 0.21 | 0.21 | 92 | 1009.4 |
| 20260506153021 | 59 | 220 | 0.0 | 3.0 | 0.05 | 0.20 | 0.20 | 92 | 1009.3 |
| 20260506151516 | 58 | 162 | 1.0 | 3.0 | 0.06 | 0.20 | 0.20 | 92 | 1009.4 |
| 20260506150014 | 58 | 119 | 1.0 | 4.0 | 0.07 | 0.20 | 0.20 | 92 | 1009.4 |
| 20260506144512 | 58 | 208 | 1.0 | 3.0 | 0.07 | 0.18 | 0.18 | 92 | 1010.2 |
| 20260506143008 | 59 | 198 | 0.0 | 2.0 | 0.05 | 0.15 | 0.15 | 92 | 1010.1 |
| 20260506141529 | 59 | 222 | 0.0 | 4.0 | 0.06 | 0.14 | 0.14 | 92 | 1009.8 |
| 20260506140025 | 59 | 155 | 0.0 | 2.0 | 0.07 | 0.13 | 0.13 | 91 | 1009.8 |
| 20260506134521 | 59 | 110 | 0.0 | 1.0 | 0.06 | 0.11 | 0.11 | 91 | 1010.1 |
| 20260506133018 | 59 | 146 | 0.0 | 2.0 | 0.07 | 0.10 | 0.10 | 91 | 1010.3 |
| 20260506131516 | 59 | 239 | 0.0 | 0.0 | 0.08 | 0.08 | 0.08 | 91 | 1010.5 |
| 20260506130012 | 59 | 198 | 0.0 | 0.0 | 0.06 | 0.06 | 0.06 | 90 | 1010.3 |
| 20260506124524 | 59 | 198 | 0.0 | 0.0 | 0.05 | 0.05 | 0.05 | 89 | 1010.2 |
| 20260506123025 | 60 | 205 | 0.0 | 0.0 | 0.03 | 0.03 | 0.03 | 87 | 1010.2 |
| 20260506121523 | 61 | 228 | 0.0 | 2.0 | 0.00 | 0.00 | 0.00 | 84 | 1010.4 |